sensor_id;sensor_type;location;lat;lon;timestamp;P1;durP1;ratioP1;P2;durP2;ratioP2
16153;SDS011;8182;55.648;13.208;2022-10-16T00:01:47;41.80;;;23.33;;
16153;SDS011;8182;55.648;13.208;2022-10-16T00:04:14;45.93;;;24.00;;
16153;SDS011;8182;55.648;13.208;2022-10-16T00:06:42;45.37;;;23.77;;
16153;SDS011;8182;55.648;13.208;2022-10-16T00:09:09;44.23;;;23.03;;
16153;SDS011;8182;55.648;13.208;2022-10-16T00:11:47;40.03;;;22.40;;
16153;SDS011;8182;55.648;13.208;2022-10-16T00:14:17;44.10;;;22.50;;
16153;SDS011;8182;55.648;13.208;2022-10-16T00:16:49;45.03;;;23.33;;
16153;SDS011;8182;55.648;13.208;2022-10-16T00:19:22;41.80;;;23.00;;
16153;SDS011;8182;55.648;13.208;2022-10-16T00:21:53;42.57;;;21.77;;
16153;SDS011;8182;55.648;13.208;2022-10-16T00:24:20;41.70;;;21.17;;
16153;SDS011;8182;55.648;13.208;2022-10-16T00:26:49;39.13;;;22.27;;
16153;SDS011;8182;55.648;13.208;2022-10-16T00:29:20;39.03;;;21.53;;
16153;SDS011;8182;55.648;13.208;2022-10-16T00:31:52;42.10;;;22.17;;
16153;SDS011;8182;55.648;13.208;2022-10-16T00:34:19;38.63;;;21.43;;
16153;SDS011;8182;55.648;13.208;2022-10-16T00:36:50;40.13;;;21.23;;
16153;SDS011;8182;55.648;13.208;2022-10-16T00:39:17;40.57;;;21.67;;
16153;SDS011;8182;55.648;13.208;2022-10-16T00:41:44;43.87;;;21.67;;
16153;SDS011;8182;55.648;13.208;2022-10-16T00:47:13;46.27;;;22.00;;
16153;SDS011;8182;55.648;13.208;2022-10-16T00:49:51;40.40;;;22.00;;
16153;SDS011;8182;55.648;13.208;2022-10-16T00:52:23;43.87;;;21.20;;
16153;SDS011;8182;55.648;13.208;2022-10-16T00:54:51;42.27;;;21.10;;
16153;SDS011;8182;55.648;13.208;2022-10-16T00:57:21;42.27;;;21.17;;
16153;SDS011;8182;55.648;13.208;2022-10-16T00:59:53;44.67;;;22.20;;
16153;SDS011;8182;55.648;13.208;2022-10-16T01:02:23;48.17;;;23.07;;
16153;SDS011;8182;55.648;13.208;2022-10-16T01:04:50;48.17;;;22.77;;
16153;SDS011;8182;55.648;13.208;2022-10-16T01:07:21;41.33;;;22.50;;
16153;SDS011;8182;55.648;13.208;2022-10-16T01:10:02;43.00;;;21.90;;
16153;SDS011;8182;55.648;13.208;2022-10-16T01:12:42;47.10;;;22.07;;
16153;SDS011;8182;55.648;13.208;2022-10-16T01:15:16;41.40;;;21.40;;
16153;SDS011;8182;55.648;13.208;2022-10-16T01:17:51;39.93;;;21.43;;
16153;SDS011;8182;55.648;13.208;2022-10-16T01:20:24;43.80;;;21.60;;
16153;SDS011;8182;55.648;13.208;2022-10-16T01:23:07;39.47;;;20.80;;
16153;SDS011;8182;55.648;13.208;2022-10-16T01:25:51;43.37;;;21.57;;
16153;SDS011;8182;55.648;13.208;2022-10-16T01:28:29;40.57;;;21.00;;
16153;SDS011;8182;55.648;13.208;2022-10-16T01:31:02;39.13;;;20.00;;
16153;SDS011;8182;55.648;13.208;2022-10-16T01:33:32;39.47;;;20.33;;
16153;SDS011;8182;55.648;13.208;2022-10-16T01:36:06;38.40;;;20.30;;
16153;SDS011;8182;55.648;13.208;2022-10-16T01:38:40;37.10;;;19.83;;
16153;SDS011;8182;55.648;13.208;2022-10-16T01:41:15;38.63;;;19.70;;
16153;SDS011;8182;55.648;13.208;2022-10-16T01:43:48;38.80;;;18.73;;
16153;SDS011;8182;55.648;13.208;2022-10-16T01:46:20;35.80;;;18.73;;
16153;SDS011;8182;55.648;13.208;2022-10-16T01:48:49;32.53;;;17.87;;
16153;SDS011;8182;55.648;13.208;2022-10-16T01:51:18;39.27;;;19.37;;
16153;SDS011;8182;55.648;13.208;2022-10-16T01:53:48;34.97;;;18.73;;
16153;SDS011;8182;55.648;13.208;2022-10-16T01:56:17;32.63;;;17.70;;
16153;SDS011;8182;55.648;13.208;2022-10-16T01:58:49;37.40;;;17.70;;
16153;SDS011;8182;55.648;13.208;2022-10-16T02:01:20;33.03;;;16.40;;
16153;SDS011;8182;55.648;13.208;2022-10-16T02:03:51;34.33;;;16.47;;
16153;SDS011;8182;55.648;13.208;2022-10-16T02:06:25;37.67;;;17.13;;
16153;SDS011;8182;55.648;13.208;2022-10-16T02:08:53;34.87;;;17.50;;
16153;SDS011;8182;55.648;13.208;2022-10-16T02:11:20;32.40;;;16.53;;
16153;SDS011;8182;55.648;13.208;2022-10-16T02:13:50;34.10;;;16.77;;
16153;SDS011;8182;55.648;13.208;2022-10-16T02:16:23;33.17;;;17.07;;
16153;SDS011;8182;55.648;13.208;2022-10-16T02:18:59;33.43;;;16.47;;
16153;SDS011;8182;55.648;13.208;2022-10-16T02:21:35;36.47;;;17.20;;
16153;SDS011;8182;55.648;13.208;2022-10-16T02:24:08;39.23;;;18.60;;
16153;SDS011;8182;55.648;13.208;2022-10-16T02:26:40;38.47;;;18.37;;
16153;SDS011;8182;55.648;13.208;2022-10-16T02:29:16;42.27;;;19.70;;
16153;SDS011;8182;55.648;13.208;2022-10-16T02:31:46;44.07;;;20.73;;
16153;SDS011;8182;55.648;13.208;2022-10-16T02:34:17;45.10;;;21.17;;
16153;SDS011;8182;55.648;13.208;2022-10-16T02:36:50;44.43;;;21.33;;
16153;SDS011;8182;55.648;13.208;2022-10-16T02:39:20;42.13;;;20.23;;
16153;SDS011;8182;55.648;13.208;2022-10-16T02:41:54;41.83;;;20.07;;
16153;SDS011;8182;55.648;13.208;2022-10-16T02:44:22;45.87;;;20.17;;
16153;SDS011;8182;55.648;13.208;2022-10-16T02:46:49;43.03;;;20.27;;
16153;SDS011;8182;55.648;13.208;2022-10-16T02:49:20;39.17;;;18.97;;
16153;SDS011;8182;55.648;13.208;2022-10-16T02:51:47;42.13;;;19.20;;
16153;SDS011;8182;55.648;13.208;2022-10-16T02:54:14;41.80;;;19.20;;
16153;SDS011;8182;55.648;13.208;2022-10-16T02:56:41;41.53;;;19.60;;
16153;SDS011;8182;55.648;13.208;2022-10-16T02:59:12;40.53;;;19.20;;
16153;SDS011;8182;55.648;13.208;2022-10-16T03:01:45;44.33;;;20.00;;
16153;SDS011;8182;55.648;13.208;2022-10-16T03:04:15;46.23;;;20.33;;
16153;SDS011;8182;55.648;13.208;2022-10-16T03:06:42;44.47;;;19.57;;
16153;SDS011;8182;55.648;13.208;2022-10-16T03:09:09;49.60;;;21.70;;
16153;SDS011;8182;55.648;13.208;2022-10-16T03:11:36;46.63;;;20.90;;
16153;SDS011;8182;55.648;13.208;2022-10-16T03:14:05;47.37;;;21.20;;
16153;SDS011;8182;55.648;13.208;2022-10-16T03:16:41;51.97;;;20.93;;
16153;SDS011;8182;55.648;13.208;2022-10-16T03:19:09;52.23;;;21.57;;
16153;SDS011;8182;55.648;13.208;2022-10-16T03:21:41;55.13;;;22.60;;
16153;SDS011;8182;55.648;13.208;2022-10-16T03:24:08;57.37;;;22.97;;
16153;SDS011;8182;55.648;13.208;2022-10-16T03:26:36;54.83;;;22.47;;
16153;SDS011;8182;55.648;13.208;2022-10-16T03:29:03;49.73;;;21.50;;
16153;SDS011;8182;55.648;13.208;2022-10-16T03:31:31;50.50;;;21.17;;
16153;SDS011;8182;55.648;13.208;2022-10-16T03:33:59;49.10;;;20.07;;
16153;SDS011;8182;55.648;13.208;2022-10-16T03:36:27;43.23;;;19.60;;
16153;SDS011;8182;55.648;13.208;2022-10-16T03:38:55;44.57;;;19.53;;
16153;SDS011;8182;55.648;13.208;2022-10-16T03:41:26;39.37;;;17.70;;
16153;SDS011;8182;55.648;13.208;2022-10-16T03:43:54;39.80;;;17.23;;
16153;SDS011;8182;55.648;13.208;2022-10-16T03:46:21;40.23;;;17.20;;
16153;SDS011;8182;55.648;13.208;2022-10-16T03:48:48;34.77;;;16.97;;
16153;SDS011;8182;55.648;13.208;2022-10-16T03:51:18;35.23;;;16.10;;
16153;SDS011;8182;55.648;13.208;2022-10-16T03:53:49;38.20;;;16.50;;
16153;SDS011;8182;55.648;13.208;2022-10-16T03:56:16;33.10;;;15.13;;
16153;SDS011;8182;55.648;13.208;2022-10-16T03:58:44;34.83;;;14.97;;
16153;SDS011;8182;55.648;13.208;2022-10-16T04:01:11;37.63;;;14.97;;
16153;SDS011;8182;55.648;13.208;2022-10-16T04:03:44;36.70;;;14.63;;
16153;SDS011;8182;55.648;13.208;2022-10-16T04:06:11;32.60;;;15.03;;
16153;SDS011;8182;55.648;13.208;2022-10-16T04:08:38;33.50;;;14.40;;
16153;SDS011;8182;55.648;13.208;2022-10-16T04:11:10;33.00;;;14.63;;
16153;SDS011;8182;55.648;13.208;2022-10-16T04:13:37;31.93;;;13.77;;
16153;SDS011;8182;55.648;13.208;2022-10-16T04:16:06;24.37;;;13.27;;
16153;SDS011;8182;55.648;13.208;2022-10-16T04:18:34;26.37;;;13.07;;
16153;SDS011;8182;55.648;13.208;2022-10-16T04:21:04;28.83;;;14.13;;
16153;SDS011;8182;55.648;13.208;2022-10-16T04:23:32;29.40;;;13.20;;
16153;SDS011;8182;55.648;13.208;2022-10-16T04:26:00;30.03;;;13.60;;
16153;SDS011;8182;55.648;13.208;2022-10-16T04:28:29;30.23;;;13.53;;
16153;SDS011;8182;55.648;13.208;2022-10-16T04:30:56;30.67;;;13.67;;
16153;SDS011;8182;55.648;13.208;2022-10-16T04:33:25;29.93;;;13.17;;
16153;SDS011;8182;55.648;13.208;2022-10-16T04:36:03;32.23;;;13.90;;
16153;SDS011;8182;55.648;13.208;2022-10-16T04:38:31;26.90;;;13.30;;
16153;SDS011;8182;55.648;13.208;2022-10-16T04:40:58;27.90;;;12.57;;
16153;SDS011;8182;55.648;13.208;2022-10-16T04:43:26;26.93;;;12.57;;
16153;SDS011;8182;55.648;13.208;2022-10-16T04:45:55;28.90;;;13.40;;
16153;SDS011;8182;55.648;13.208;2022-10-16T04:48:22;25.70;;;13.20;;
16153;SDS011;8182;55.648;13.208;2022-10-16T04:50:49;28.27;;;13.10;;
16153;SDS011;8182;55.648;13.208;2022-10-16T04:53:16;25.77;;;12.73;;
16153;SDS011;8182;55.648;13.208;2022-10-16T04:55:44;22.10;;;12.40;;
16153;SDS011;8182;55.648;13.208;2022-10-16T04:58:11;22.87;;;11.50;;
16153;SDS011;8182;55.648;13.208;2022-10-16T05:00:38;28.40;;;11.80;;
16153;SDS011;8182;55.648;13.208;2022-10-16T05:03:07;18.13;;;11.07;;
16153;SDS011;8182;55.648;13.208;2022-10-16T05:05:41;25.73;;;12.40;;
16153;SDS011;8182;55.648;13.208;2022-10-16T05:08:13;22.33;;;11.23;;
16153;SDS011;8182;55.648;13.208;2022-10-16T05:10:44;21.77;;;11.03;;
16153;SDS011;8182;55.648;13.208;2022-10-16T05:13:12;24.40;;;11.70;;
16153;SDS011;8182;55.648;13.208;2022-10-16T05:15:50;17.77;;;10.67;;
16153;SDS011;8182;55.648;13.208;2022-10-16T05:18:19;21.30;;;11.10;;
16153;SDS011;8182;55.648;13.208;2022-10-16T05:20:51;17.30;;;10.10;;
16153;SDS011;8182;55.648;13.208;2022-10-16T05:23:21;24.43;;;10.03;;
16153;SDS011;8182;55.648;13.208;2022-10-16T05:25:53;17.60;;;9.17;;
16153;SDS011;8182;55.648;13.208;2022-10-16T05:28:23;17.63;;;9.40;;
16153;SDS011;8182;55.648;13.208;2022-10-16T05:30:56;17.97;;;9.30;;
16153;SDS011;8182;55.648;13.208;2022-10-16T05:33:35;17.30;;;7.97;;
16153;SDS011;8182;55.648;13.208;2022-10-16T05:36:06;13.70;;;7.80;;
16153;SDS011;8182;55.648;13.208;2022-10-16T05:38:36;14.93;;;7.83;;
16153;SDS011;8182;55.648;13.208;2022-10-16T05:41:13;22.27;;;8.07;;
16153;SDS011;8182;55.648;13.208;2022-10-16T05:43:49;15.00;;;7.23;;
16153;SDS011;8182;55.648;13.208;2022-10-16T05:46:22;14.10;;;7.40;;
16153;SDS011;8182;55.648;13.208;2022-10-16T05:49:00;14.67;;;7.20;;
16153;SDS011;8182;55.648;13.208;2022-10-16T05:51:27;14.87;;;7.20;;
16153;SDS011;8182;55.648;13.208;2022-10-16T05:54:01;16.90;;;7.03;;
16153;SDS011;8182;55.648;13.208;2022-10-16T05:56:31;14.87;;;6.50;;
16153;SDS011;8182;55.648;13.208;2022-10-16T05:59:12;19.70;;;6.97;;
16153;SDS011;8182;55.648;13.208;2022-10-16T06:02:00;11.27;;;6.03;;
16153;SDS011;8182;55.648;13.208;2022-10-16T06:04:30;13.67;;;6.13;;
16153;SDS011;8182;55.648;13.208;2022-10-16T06:06:58;12.57;;;6.20;;
16153;SDS011;8182;55.648;13.208;2022-10-16T06:09:26;12.30;;;5.97;;
16153;SDS011;8182;55.648;13.208;2022-10-16T06:11:54;16.67;;;5.80;;
16153;SDS011;8182;55.648;13.208;2022-10-16T06:14:21;11.83;;;5.67;;
16153;SDS011;8182;55.648;13.208;2022-10-16T06:16:48;13.00;;;5.60;;
16153;SDS011;8182;55.648;13.208;2022-10-16T06:19:15;10.43;;;4.90;;
16153;SDS011;8182;55.648;13.208;2022-10-16T06:21:44;11.47;;;5.63;;
16153;SDS011;8182;55.648;13.208;2022-10-16T06:24:11;10.67;;;5.17;;
16153;SDS011;8182;55.648;13.208;2022-10-16T06:26:51;9.60;;;5.50;;
16153;SDS011;8182;55.648;13.208;2022-10-16T06:29:21;13.67;;;5.30;;
16153;SDS011;8182;55.648;13.208;2022-10-16T06:31:48;10.80;;;5.50;;
16153;SDS011;8182;55.648;13.208;2022-10-16T06:34:15;14.47;;;5.10;;
16153;SDS011;8182;55.648;13.208;2022-10-16T06:36:43;10.70;;;4.93;;
16153;SDS011;8182;55.648;13.208;2022-10-16T06:39:10;7.00;;;5.17;;
16153;SDS011;8182;55.648;13.208;2022-10-16T06:41:38;11.83;;;5.13;;
16153;SDS011;8182;55.648;13.208;2022-10-16T06:44:05;12.70;;;5.20;;
16153;SDS011;8182;55.648;13.208;2022-10-16T06:46:36;10.47;;;5.63;;
16153;SDS011;8182;55.648;13.208;2022-10-16T06:49:03;10.30;;;4.90;;
16153;SDS011;8182;55.648;13.208;2022-10-16T06:51:30;12.03;;;5.50;;
16153;SDS011;8182;55.648;13.208;2022-10-16T06:54:07;13.47;;;5.33;;
16153;SDS011;8182;55.648;13.208;2022-10-16T06:56:35;9.33;;;5.20;;
16153;SDS011;8182;55.648;13.208;2022-10-16T06:59:03;8.33;;;5.00;;
16153;SDS011;8182;55.648;13.208;2022-10-16T07:01:30;10.33;;;4.70;;
16153;SDS011;8182;55.648;13.208;2022-10-16T07:03:58;9.23;;;4.67;;
16153;SDS011;8182;55.648;13.208;2022-10-16T07:06:26;8.30;;;4.77;;
16153;SDS011;8182;55.648;13.208;2022-10-16T07:08:57;8.17;;;5.07;;
16153;SDS011;8182;55.648;13.208;2022-10-16T07:11:26;12.37;;;5.03;;
16153;SDS011;8182;55.648;13.208;2022-10-16T07:13:53;9.23;;;4.60;;
16153;SDS011;8182;55.648;13.208;2022-10-16T07:16:20;10.87;;;4.93;;
16153;SDS011;8182;55.648;13.208;2022-10-16T07:18:49;7.80;;;4.80;;
16153;SDS011;8182;55.648;13.208;2022-10-16T07:21:20;11.87;;;5.00;;
16153;SDS011;8182;55.648;13.208;2022-10-16T07:23:50;10.27;;;4.87;;
16153;SDS011;8182;55.648;13.208;2022-10-16T07:26:21;9.93;;;4.87;;
16153;SDS011;8182;55.648;13.208;2022-10-16T07:28:50;12.93;;;5.20;;
16153;SDS011;8182;55.648;13.208;2022-10-16T07:31:18;7.80;;;4.30;;
16153;SDS011;8182;55.648;13.208;2022-10-16T07:33:47;13.53;;;5.00;;
16153;SDS011;8182;55.648;13.208;2022-10-16T07:36:18;8.90;;;4.07;;
16153;SDS011;8182;55.648;13.208;2022-10-16T07:38:49;10.50;;;4.07;;
16153;SDS011;8182;55.648;13.208;2022-10-16T07:41:17;9.03;;;4.33;;
16153;SDS011;8182;55.648;13.208;2022-10-16T07:43:57;11.77;;;4.47;;
16153;SDS011;8182;55.648;13.208;2022-10-16T07:46:26;10.97;;;3.57;;
16153;SDS011;8182;55.648;13.208;2022-10-16T07:48:56;11.87;;;3.70;;
16153;SDS011;8182;55.648;13.208;2022-10-16T07:51:25;9.43;;;3.70;;
16153;SDS011;8182;55.648;13.208;2022-10-16T07:53:55;8.47;;;4.00;;
16153;SDS011;8182;55.648;13.208;2022-10-16T07:56:22;6.23;;;3.67;;
16153;SDS011;8182;55.648;13.208;2022-10-16T07:58:49;8.43;;;3.40;;
16153;SDS011;8182;55.648;13.208;2022-10-16T08:01:19;6.23;;;3.10;;
16153;SDS011;8182;55.648;13.208;2022-10-16T08:03:50;9.60;;;3.80;;
16153;SDS011;8182;55.648;13.208;2022-10-16T08:06:18;5.67;;;3.10;;
16153;SDS011;8182;55.648;13.208;2022-10-16T08:08:46;7.53;;;2.67;;
16153;SDS011;8182;55.648;13.208;2022-10-16T08:11:18;6.63;;;2.73;;
16153;SDS011;8182;55.648;13.208;2022-10-16T08:13:45;5.87;;;2.93;;
16153;SDS011;8182;55.648;13.208;2022-10-16T08:16:15;5.33;;;2.30;;
16153;SDS011;8182;55.648;13.208;2022-10-16T08:18:46;8.63;;;2.43;;
16153;SDS011;8182;55.648;13.208;2022-10-16T08:21:14;8.10;;;2.43;;
16153;SDS011;8182;55.648;13.208;2022-10-16T08:23:42;4.57;;;1.90;;
16153;SDS011;8182;55.648;13.208;2022-10-16T08:26:10;7.07;;;2.13;;
16153;SDS011;8182;55.648;13.208;2022-10-16T08:28:39;7.00;;;2.40;;
16153;SDS011;8182;55.648;13.208;2022-10-16T08:31:08;6.60;;;2.40;;
16153;SDS011;8182;55.648;13.208;2022-10-16T08:33:36;7.67;;;1.87;;
16153;SDS011;8182;55.648;13.208;2022-10-16T08:36:06;5.97;;;2.23;;
16153;SDS011;8182;55.648;13.208;2022-10-16T08:38:33;7.30;;;2.00;;
16153;SDS011;8182;55.648;13.208;2022-10-16T08:41:15;7.33;;;2.00;;
16153;SDS011;8182;55.648;13.208;2022-10-16T08:46:51;6.43;;;1.90;;
16153;SDS011;8182;55.648;13.208;2022-10-16T08:49:29;6.70;;;2.20;;
16153;SDS011;8182;55.648;13.208;2022-10-16T08:52:01;6.83;;;2.50;;
16153;SDS011;8182;55.648;13.208;2022-10-16T08:54:29;6.40;;;2.00;;
16153;SDS011;8182;55.648;13.208;2022-10-16T08:57:07;4.13;;;1.80;;
16153;SDS011;8182;55.648;13.208;2022-10-16T08:59:37;4.23;;;1.97;;
16153;SDS011;8182;55.648;13.208;2022-10-16T09:02:08;4.13;;;1.73;;
16153;SDS011;8182;55.648;13.208;2022-10-16T09:04:52;4.77;;;1.83;;
16153;SDS011;8182;55.648;13.208;2022-10-16T09:07:40;6.23;;;1.90;;
16153;SDS011;8182;55.648;13.208;2022-10-16T09:10:15;4.33;;;1.70;;
16153;SDS011;8182;55.648;13.208;2022-10-16T09:12:57;5.43;;;1.80;;
16153;SDS011;8182;55.648;13.208;2022-10-16T09:15:34;7.40;;;2.10;;
16153;SDS011;8182;55.648;13.208;2022-10-16T09:18:06;8.33;;;1.80;;
16153;SDS011;8182;55.648;13.208;2022-10-16T09:20:42;5.57;;;1.90;;
16153;SDS011;8182;55.648;13.208;2022-10-16T09:23:17;4.83;;;1.67;;
16153;SDS011;8182;55.648;13.208;2022-10-16T09:25:49;4.40;;;1.90;;
16153;SDS011;8182;55.648;13.208;2022-10-16T09:28:17;4.07;;;1.80;;
16153;SDS011;8182;55.648;13.208;2022-10-16T09:30:45;4.67;;;1.60;;
16153;SDS011;8182;55.648;13.208;2022-10-16T09:33:15;9.13;;;1.73;;
16153;SDS011;8182;55.648;13.208;2022-10-16T09:35:44;6.20;;;1.70;;
16153;SDS011;8182;55.648;13.208;2022-10-16T09:38:24;3.90;;;1.40;;
16153;SDS011;8182;55.648;13.208;2022-10-16T09:40:53;3.87;;;1.50;;
16153;SDS011;8182;55.648;13.208;2022-10-16T09:43:22;6.10;;;1.60;;
16153;SDS011;8182;55.648;13.208;2022-10-16T09:45:53;5.43;;;1.47;;
16153;SDS011;8182;55.648;13.208;2022-10-16T09:48:22;4.67;;;1.33;;
16153;SDS011;8182;55.648;13.208;2022-10-16T09:50:55;4.93;;;1.50;;
16153;SDS011;8182;55.648;13.208;2022-10-16T09:53:24;5.03;;;1.40;;
16153;SDS011;8182;55.648;13.208;2022-10-16T09:56:04;5.90;;;1.33;;
16153;SDS011;8182;55.648;13.208;2022-10-16T09:58:32;5.63;;;1.50;;
16153;SDS011;8182;55.648;13.208;2022-10-16T10:00:59;5.67;;;1.60;;
16153;SDS011;8182;55.648;13.208;2022-10-16T10:03:32;3.23;;;1.50;;
16153;SDS011;8182;55.648;13.208;2022-10-16T10:06:05;6.10;;;1.40;;
16153;SDS011;8182;55.648;13.208;2022-10-16T10:08:53;6.50;;;1.67;;
16153;SDS011;8182;55.648;13.208;2022-10-16T10:14:21;4.93;;;1.20;;
16153;SDS011;8182;55.648;13.208;2022-10-16T10:16:52;3.23;;;1.20;;
16153;SDS011;8182;55.648;13.208;2022-10-16T10:19:39;3.43;;;1.20;;
16153;SDS011;8182;55.648;13.208;2022-10-16T10:22:16;5.23;;;1.40;;
16153;SDS011;8182;55.648;13.208;2022-10-16T10:24:55;5.13;;;1.40;;
16153;SDS011;8182;55.648;13.208;2022-10-16T10:27:43;5.53;;;1.50;;
16153;SDS011;8182;55.648;13.208;2022-10-16T10:30:19;3.53;;;1.33;;
16153;SDS011;8182;55.648;13.208;2022-10-16T10:32:55;3.60;;;1.33;;
16153;SDS011;8182;55.648;13.208;2022-10-16T10:35:37;4.83;;;1.37;;
16153;SDS011;8182;55.648;13.208;2022-10-16T10:38:16;3.77;;;1.47;;
16153;SDS011;8182;55.648;13.208;2022-10-16T10:40:56;3.60;;;1.47;;
16153;SDS011;8182;55.648;13.208;2022-10-16T10:43:41;6.03;;;1.40;;
16153;SDS011;8182;55.648;13.208;2022-10-16T10:46:22;8.13;;;1.50;;
16153;SDS011;8182;55.648;13.208;2022-10-16T10:49:02;4.37;;;1.20;;
16153;SDS011;8182;55.648;13.208;2022-10-16T10:51:52;3.50;;;1.53;;
16153;SDS011;8182;55.648;13.208;2022-10-16T10:54:31;3.33;;;1.37;;
16153;SDS011;8182;55.648;13.208;2022-10-16T10:57:06;3.37;;;1.30;;
16153;SDS011;8182;55.648;13.208;2022-10-16T10:59:47;3.70;;;1.20;;
16153;SDS011;8182;55.648;13.208;2022-10-16T11:02:25;6.03;;;1.40;;
16153;SDS011;8182;55.648;13.208;2022-10-16T11:05:10;3.60;;;1.17;;
16153;SDS011;8182;55.648;13.208;2022-10-16T11:07:55;5.80;;;1.40;;
16153;SDS011;8182;55.648;13.208;2022-10-16T11:10:26;5.07;;;1.60;;
16153;SDS011;8182;55.648;13.208;2022-10-16T11:13:01;5.17;;;1.30;;
16153;SDS011;8182;55.648;13.208;2022-10-16T11:15:37;5.67;;;1.30;;
16153;SDS011;8182;55.648;13.208;2022-10-16T11:18:07;6.53;;;1.60;;
16153;SDS011;8182;55.648;13.208;2022-10-16T11:20:40;4.67;;;1.40;;
16153;SDS011;8182;55.648;13.208;2022-10-16T11:23:14;7.13;;;1.60;;
16153;SDS011;8182;55.648;13.208;2022-10-16T11:25:46;6.47;;;1.37;;
16153;SDS011;8182;55.648;13.208;2022-10-16T11:28:17;4.10;;;1.43;;
16153;SDS011;8182;55.648;13.208;2022-10-16T11:30:51;5.80;;;1.60;;
16153;SDS011;8182;55.648;13.208;2022-10-16T11:33:25;7.03;;;1.60;;
16153;SDS011;8182;55.648;13.208;2022-10-16T11:35:59;5.57;;;1.67;;
16153;SDS011;8182;55.648;13.208;2022-10-16T11:38:31;5.40;;;2.60;;
16153;SDS011;8182;55.648;13.208;2022-10-16T11:41:03;7.73;;;2.17;;
16153;SDS011;8182;55.648;13.208;2022-10-16T11:43:38;3.73;;;1.60;;
16153;SDS011;8182;55.648;13.208;2022-10-16T11:46:10;6.80;;;1.50;;
16153;SDS011;8182;55.648;13.208;2022-10-16T11:48:43;5.53;;;1.50;;
16153;SDS011;8182;55.648;13.208;2022-10-16T11:51:19;5.33;;;1.80;;
16153;SDS011;8182;55.648;13.208;2022-10-16T11:53:53;5.50;;;1.40;;
16153;SDS011;8182;55.648;13.208;2022-10-16T11:56:25;7.63;;;1.67;;
16153;SDS011;8182;55.648;13.208;2022-10-16T11:58:57;5.60;;;1.77;;
16153;SDS011;8182;55.648;13.208;2022-10-16T12:01:29;6.57;;;1.50;;
16153;SDS011;8182;55.648;13.208;2022-10-16T12:04:03;3.73;;;1.30;;
16153;SDS011;8182;55.648;13.208;2022-10-16T12:06:47;5.57;;;1.50;;
16153;SDS011;8182;55.648;13.208;2022-10-16T12:09:20;4.63;;;1.37;;
16153;SDS011;8182;55.648;13.208;2022-10-16T12:11:50;3.73;;;1.33;;
16153;SDS011;8182;55.648;13.208;2022-10-16T12:14:21;5.13;;;1.50;;
16153;SDS011;8182;55.648;13.208;2022-10-16T12:17:00;5.87;;;1.57;;
16153;SDS011;8182;55.648;13.208;2022-10-16T12:19:30;4.10;;;1.40;;
16153;SDS011;8182;55.648;13.208;2022-10-16T12:21:59;3.87;;;1.50;;
16153;SDS011;8182;55.648;13.208;2022-10-16T12:24:34;5.57;;;1.57;;
16153;SDS011;8182;55.648;13.208;2022-10-16T12:27:04;5.00;;;1.57;;
16153;SDS011;8182;55.648;13.208;2022-10-16T12:29:35;3.20;;;1.27;;
16153;SDS011;8182;55.648;13.208;2022-10-16T12:32:05;3.97;;;1.40;;
16153;SDS011;8182;55.648;13.208;2022-10-16T12:34:47;3.70;;;1.60;;
16153;SDS011;8182;55.648;13.208;2022-10-16T12:37:19;4.83;;;1.30;;
16153;SDS011;8182;55.648;13.208;2022-10-16T12:39:49;4.60;;;1.50;;
16153;SDS011;8182;55.648;13.208;2022-10-16T12:42:21;4.67;;;1.40;;
16153;SDS011;8182;55.648;13.208;2022-10-16T12:44:51;3.93;;;1.47;;
16153;SDS011;8182;55.648;13.208;2022-10-16T12:47:19;4.53;;;1.40;;
16153;SDS011;8182;55.648;13.208;2022-10-16T12:49:48;5.17;;;1.60;;
16153;SDS011;8182;55.648;13.208;2022-10-16T12:52:24;3.93;;;1.53;;
16153;SDS011;8182;55.648;13.208;2022-10-16T12:54:55;3.93;;;1.47;;
16153;SDS011;8182;55.648;13.208;2022-10-16T12:57:30;5.10;;;1.50;;
16153;SDS011;8182;55.648;13.208;2022-10-16T13:00:12;6.20;;;1.70;;
16153;SDS011;8182;55.648;13.208;2022-10-16T13:02:50;5.73;;;1.87;;
16153;SDS011;8182;55.648;13.208;2022-10-16T13:05:44;5.33;;;1.40;;
16153;SDS011;8182;55.648;13.208;2022-10-16T13:08:25;5.73;;;1.53;;
16153;SDS011;8182;55.648;13.208;2022-10-16T13:11:05;6.23;;;1.73;;
16153;SDS011;8182;55.648;13.208;2022-10-16T13:13:44;6.37;;;1.97;;
16153;SDS011;8182;55.648;13.208;2022-10-16T13:16:39;5.13;;;1.70;;
16153;SDS011;8182;55.648;13.208;2022-10-16T13:19:18;6.87;;;1.73;;
16153;SDS011;8182;55.648;13.208;2022-10-16T13:21:56;8.57;;;2.03;;
16153;SDS011;8182;55.648;13.208;2022-10-16T13:27:25;8.00;;;2.00;;
16153;SDS011;8182;55.648;13.208;2022-10-16T13:30:01;5.47;;;1.50;;
16153;SDS011;8182;55.648;13.208;2022-10-16T13:32:38;7.57;;;2.13;;
16153;SDS011;8182;55.648;13.208;2022-10-16T13:35:16;7.63;;;1.63;;
16153;SDS011;8182;55.648;13.208;2022-10-16T13:37:46;6.23;;;1.93;;
16153;SDS011;8182;55.648;13.208;2022-10-16T13:40:18;8.00;;;2.00;;
16153;SDS011;8182;55.648;13.208;2022-10-16T13:42:46;6.23;;;2.10;;
16153;SDS011;8182;55.648;13.208;2022-10-16T13:45:17;8.47;;;2.07;;
16153;SDS011;8182;55.648;13.208;2022-10-16T13:47:46;5.30;;;1.80;;
16153;SDS011;8182;55.648;13.208;2022-10-16T13:50:15;6.10;;;1.83;;
16153;SDS011;8182;55.648;13.208;2022-10-16T13:52:43;8.33;;;2.00;;
16153;SDS011;8182;55.648;13.208;2022-10-16T13:55:11;7.33;;;1.77;;
16153;SDS011;8182;55.648;13.208;2022-10-16T13:57:39;8.40;;;2.13;;
16153;SDS011;8182;55.648;13.208;2022-10-16T14:00:20;8.83;;;1.77;;
16153;SDS011;8182;55.648;13.208;2022-10-16T14:02:55;6.63;;;1.80;;
16153;SDS011;8182;55.648;13.208;2022-10-16T14:05:30;8.00;;;2.07;;
16153;SDS011;8182;55.648;13.208;2022-10-16T14:07:57;8.37;;;2.00;;
16153;SDS011;8182;55.648;13.208;2022-10-16T14:10:25;8.43;;;2.00;;
16153;SDS011;8182;55.648;13.208;2022-10-16T14:12:58;8.10;;;1.90;;
16153;SDS011;8182;55.648;13.208;2022-10-16T14:15:28;8.20;;;1.80;;
16153;SDS011;8182;55.648;13.208;2022-10-16T14:17:58;8.73;;;2.00;;
16153;SDS011;8182;55.648;13.208;2022-10-16T14:20:26;7.97;;;1.70;;
16153;SDS011;8182;55.648;13.208;2022-10-16T14:22:59;5.43;;;1.60;;
16153;SDS011;8182;55.648;13.208;2022-10-16T14:25:28;9.57;;;1.70;;
16153;SDS011;8182;55.648;13.208;2022-10-16T14:27:57;7.27;;;2.00;;
16153;SDS011;8182;55.648;13.208;2022-10-16T14:30:30;8.90;;;2.10;;
16153;SDS011;8182;55.648;13.208;2022-10-16T14:35:47;6.33;;;1.90;;
16153;SDS011;8182;55.648;13.208;2022-10-16T14:38:29;7.80;;;2.03;;
16153;SDS011;8182;55.648;13.208;2022-10-16T14:40:58;7.60;;;1.93;;
16153;SDS011;8182;55.648;13.208;2022-10-16T14:43:29;8.57;;;2.13;;
16153;SDS011;8182;55.648;13.208;2022-10-16T14:45:59;7.77;;;1.63;;
16153;SDS011;8182;55.648;13.208;2022-10-16T14:48:30;7.90;;;1.83;;
16153;SDS011;8182;55.648;13.208;2022-10-16T14:50:57;11.37;;;2.07;;
16153;SDS011;8182;55.648;13.208;2022-10-16T14:53:24;11.87;;;2.37;;
16153;SDS011;8182;55.648;13.208;2022-10-16T14:55:52;8.63;;;2.20;;
16153;SDS011;8182;55.648;13.208;2022-10-16T14:58:20;7.37;;;2.00;;
16153;SDS011;8182;55.648;13.208;2022-10-16T15:00:49;8.67;;;2.10;;
16153;SDS011;8182;55.648;13.208;2022-10-16T15:03:16;8.27;;;1.93;;
16153;SDS011;8182;55.648;13.208;2022-10-16T15:05:45;7.87;;;2.10;;
16153;SDS011;8182;55.648;13.208;2022-10-16T15:08:12;7.07;;;1.90;;
16153;SDS011;8182;55.648;13.208;2022-10-16T15:10:41;8.77;;;2.10;;
16153;SDS011;8182;55.648;13.208;2022-10-16T15:13:11;12.20;;;2.07;;
16153;SDS011;8182;55.648;13.208;2022-10-16T15:15:40;7.90;;;2.23;;
16153;SDS011;8182;55.648;13.208;2022-10-16T15:18:09;8.87;;;2.03;;